Time;durP1;ratioP1;P1;durP2;ratioP2;P2;SDS_P1;SDS_P2;PMS_P1;PMS_P2;Temp;Humidity;BMP_temperature;BMP_pressure;BME280_temperature;BME280_humidity;BME280_pressure;Samples;Min_cycle;Max_cycle;Signal;HPM_P1;HPM_P2
2021/03/26 00:04:26;;;;;;;2.13;1.27;;;9.70;68.80;;;;;;20900903;28;20374;-75
2021/03/26 00:14:27;;;;;;;4.97;1.95;;;9.70;68.80;;;;;;20899766;28;20758;-74
2021/03/26 00:24:27;;;;;;;1.88;1.02;;;9.70;68.80;;;;;;20899143;28;20130;-75
2021/03/26 00:34:28;;;;;;;3.63;1.53;;;9.70;68.80;;;;;;20898279;28;20491;-75
2021/03/26 00:44:29;;;;;;;1.95;1.10;;;9.70;68.80;;;;;;20897430;28;20323;-76
2021/03/26 00:54:29;;;;;;;4.50;2.30;;;9.70;68.90;;;;;;20879217;28;20116;-75
2021/03/26 01:04:30;;;;;;;2.78;1.25;;;9.70;68.90;;;;;;20897090;28;20032;-75
2021/03/26 01:14:32;;;;;;;3.65;2.13;;;9.70;68.90;;;;;;20878458;28;20033;-75
2021/03/26 01:24:33;;;;;;;3.25;1.65;;;9.70;68.90;;;;;;20879556;28;20051;-75
2021/03/26 01:34:33;;;;;;;5.43;2.08;;;9.70;68.90;;;;;;20910239;28;20036;-74
2021/03/26 01:44:38;;;;;;;1.13;0.82;;;9.70;68.90;;;;;;20893528;28;20033;-74
2021/03/26 01:54:48;;;;;;;4.53;1.48;;;9.70;69.00;;;;;;20878870;28;20123;-75
2021/03/26 02:04:51;;;;;;;2.95;1.42;;;9.70;69.00;;;;;;20907663;28;20048;-75
2021/03/26 02:15:15;;;;;;;3.00;1.42;;;9.70;69.00;;;;;;20888798;28;20044;-75
2021/03/26 02:25:20;;;;;;;3.25;1.55;;;9.70;69.10;;;;;;20907347;28;20033;-75
2021/03/26 02:35:31;;;;;;;2.17;1.73;;;9.70;69.00;;;;;;20889889;28;20037;-75
2021/03/26 02:46:04;;;;;;;4.32;1.63;;;9.70;69.10;;;;;;20885339;28;20434;-74
2021/03/26 02:56:12;;;;;;;4.50;1.67;;;9.70;69.10;;;;;;20889234;28;20495;-75
2021/03/26 03:06:25;;;;;;;4.18;1.15;;;9.70;69.10;;;;;;20890312;28;20044;-74
2021/03/26 03:17:25;;;;;;;2.25;1.65;;;9.70;69.10;;;;;;20895454;28;20037;-74
2021/03/26 03:27:37;;;;;;;2.30;1.38;;;9.70;69.10;;;;;;20903535;28;20043;-76
2021/03/26 03:38:09;;;;;;;2.55;1.30;;;9.70;69.20;;;;;;20886282;28;20036;-75
2021/03/26 03:48:15;;;;;;;2.17;1.30;;;9.70;69.20;;;;;;20918203;28;20047;-75
2021/03/26 03:58:36;;;;;;;3.40;1.70;;;9.70;69.20;;;;;;20901058;28;20079;-74
2021/03/26 04:08:52;;;;;;;3.80;2.10;;;9.70;69.30;;;;;;20901356;28;20041;-74
2021/03/26 04:18:59;;;;;;;2.95;1.48;;;9.70;69.20;;;;;;20899339;28;20045;-74
2021/03/26 04:29:29;;;;;;;3.47;1.65;;;9.60;69.20;;;;;;20886130;28;20068;-76
2021/03/26 04:39:39;;;;;;;2.92;1.27;;;9.60;69.20;;;;;;20883316;28;20483;-74
2021/03/26 04:49:45;;;;;;;4.57;2.15;;;9.60;69.20;;;;;;20897424;28;20029;-74
2021/03/26 05:00:19;;;;;;;2.03;1.38;;;9.60;69.20;;;;;;20880175;28;20168;-74
2021/03/26 05:10:28;;;;;;;3.83;1.70;;;9.60;69.20;;;;;;20881494;28;20083;-75
2021/03/26 05:20:47;;;;;;;3.58;1.63;;;9.60;69.10;;;;;;20895751;28;20511;-75
2021/03/26 05:31:39;;;;;;;2.58;1.60;;;9.60;69.10;;;;;;20895432;28;20040;-74
2021/03/26 05:42:15;;;;;;;2.58;1.45;;;9.60;69.10;;;;;;20894033;28;20514;-73
2021/03/26 05:52:58;;;;;;;4.18;1.95;;;9.60;69.00;;;;;;20909374;28;20037;-74
2021/03/26 06:03:35;;;;;;;3.55;1.98;;;9.60;69.00;;;;;;20888106;28;20041;-76
2021/03/26 06:14:15;;;;;;;2.35;1.17;;;9.60;68.90;;;;;;20896096;28;20036;-77
2021/03/26 06:25:01;;;;;;;3.10;1.48;;;9.60;68.90;;;;;;20882186;28;20616;-74
2021/03/26 06:35:25;;;;;;;5.53;2.33;;;9.60;68.90;;;;;;20860314;28;20040;-77
2021/03/26 06:45:33;;;;;;;3.97;2.28;;;9.60;68.90;;;;;;20872572;28;20040;-75
2021/03/26 06:55:52;;;;;;;3.08;1.20;;;9.60;68.90;;;;;;20900494;28;20037;-79
2021/03/26 07:06:27;;;;;;;5.15;2.58;;;9.60;68.90;;;;;;20907647;28;20545;-74
2021/03/26 07:16:39;;;;;;;4.80;1.60;;;9.60;68.90;;;;;;20867477;28;20041;-75
2021/03/26 07:27:03;;;;;;;2.78;2.03;;;9.60;68.90;;;;;;20816270;28;20037;-77
2021/03/26 07:37:20;;;;;;;3.08;1.35;;;9.60;69.00;;;;;;20872997;28;20761;-78
2021/03/26 07:47:52;;;;;;;0.90;0.73;;;9.60;69.00;;;;;;20896462;28;20131;-78
2021/03/26 07:58:30;;;;;;;2.30;1.13;;;9.60;68.90;;;;;;20916193;28;20098;-77
2021/03/26 08:08:44;;;;;;;0.70;0.70;;;9.60;68.90;;;;;;20913765;28;20041;-73
2021/03/26 08:18:59;;;;;;;2.65;1.02;;;9.70;68.90;;;;;;21305292;22;20028;-76
2021/03/26 08:29:17;;;;;;;5.43;1.95;;;9.70;69.00;;;;;;20871711;28;20453;-72
2021/03/26 08:39:26;;;;;;;;;;;9.70;68.90;;;;;;20882005;28;20178;-72
2021/03/26 08:49:35;;;;;;;1.05;0.98;;;9.80;68.90;;;;;;20899561;28;19917;-74
2021/03/26 08:59:43;;;;;;;2.08;0.98;;;9.80;69.00;;;;;;20885040;28;20036;-74
2021/03/26 09:10:27;;;;;;;3.80;2.00;;;9.80;69.00;;;;;;20869651;28;20475;-73
2021/03/26 09:20:29;;;;;;;2.33;1.17;;;9.90;69.00;;;;;;20820130;28;20127;-73
2021/03/26 09:30:35;;;;;;;3.15;1.45;;;9.90;69.10;;;;;;20885734;28;20044;-73
2021/03/26 09:40:59;;;;;;;3.67;1.17;;;9.90;69.10;;;;;;20844578;28;20033;-74
2021/03/26 09:51:05;;;;;;;1.70;1.05;;;9.90;69.10;;;;;;20872338;28;20037;-75
2021/03/26 10:01:10;;;;;;;4.00;1.57;;;9.90;69.10;;;;;;20909094;28;20041;-74
2021/03/26 10:11:17;;;;;;;2.90;1.52;;;9.90;69.00;;;;;;20845975;28;20037;-73
2021/03/26 10:21:21;;;;;;;3.03;1.03;;;10.00;69.10;;;;;;20819309;28;20069;-71
2021/03/26 10:31:35;;;;;;;0.68;0.47;;;10.00;69.00;;;;;;20830611;28;20203;-72
2021/03/26 10:42:10;;;;;;;2.15;0.98;;;10.00;68.80;;;;;;20880763;28;20699;-72
2021/03/26 10:52:15;;;;;;;5.75;1.60;;;10.00;68.70;;;;;;20868827;28;20127;-72
2021/03/26 11:02:57;;;;;;;0.90;0.60;;;10.00;68.70;;;;;;20856860;28;20025;-71
2021/03/26 11:13:32;;;;;;;1.30;0.80;;;10.00;68.60;;;;;;20866237;28;20053;-73
2021/03/26 11:23:37;;;;;;;1.27;0.95;;;10.10;68.60;;;;;;20896166;28;20074;-70
2021/03/26 11:33:44;;;;;;;1.10;0.63;;;10.10;68.60;;;;;;20904328;28;20036;-79
2021/03/26 11:43:49;;;;;;;1.63;0.90;;;10.10;69.10;;;;;;20833062;28;20440;-73
2021/03/26 11:53:50;;;;;;;1.90;1.05;;;10.10;68.40;;;;;;20849956;28;20064;-75
2021/03/26 12:04:05;;;;;;;0.95;0.70;;;10.20;68.40;;;;;;20906047;28;20120;-74
2021/03/26 12:14:20;;;;;;;1.05;0.57;;;10.20;68.30;;;;;;20820234;28;20124;-73
2021/03/26 12:24:39;;;;;;;1.60;0.93;;;10.20;68.20;;;;;;20883071;28;20123;-77
2021/03/26 12:34:51;;;;;;;5.40;1.08;;;10.20;68.20;;;;;;20865691;28;20033;-73
2021/03/26 12:44:56;;;;;;;0.80;0.73;;;10.20;68.20;;;;;;20859914;28;20091;-74
2021/03/26 12:55:29;;;;;;;1.40;0.57;;;10.30;68.40;;;;;;20854004;28;20033;-74
2021/03/26 13:05:30;;;;;;;1.45;0.73;;;10.30;68.20;;;;;;20815232;28;20029;-73
2021/03/26 13:15:32;;;;;;;2.28;1.63;;;10.40;68.50;;;;;;20812988;28;20040;-74
2021/03/26 13:25:47;;;;;;;1.45;0.80;;;10.40;68.60;;;;;;20866255;28;20545;-74
2021/03/26 13:36:29;;;;;;;1.13;0.50;;;10.40;68.70;;;;;;20859911;28;20396;-73
2021/03/26 13:46:30;;;;;;;0.57;0.40;;;10.50;68.80;;;;;;20864440;28;20483;-75
2021/03/26 13:56:34;;;;;;;1.08;0.47;;;10.50;68.80;;;;;;20888915;28;20099;-76
2021/03/26 14:06:46;;;;;;;2.72;1.10;;;10.50;68.90;;;;;;20886067;28;20595;-74
2021/03/26 14:17:06;;;;;;;0.63;0.57;;;10.50;69.20;;;;;;20907540;28;20441;-76
2021/03/26 14:27:14;;;;;;;2.83;0.98;;;10.60;69.40;;;;;;20857677;28;20148;-75
2021/03/26 14:37:18;;;;;;;0.50;0.50;;;10.60;69.30;;;;;;20874660;28;20079;-80
2021/03/26 14:47:19;;;;;;;1.05;0.68;;;10.60;69.30;;;;;;20873390;28;20073;-74
2021/03/26 14:57:30;;;;;;;0.80;0.52;;;10.70;69.40;;;;;;20889361;28;20032;-74
2021/03/26 15:07:34;;;;;;;0.98;0.45;;;10.80;69.40;;;;;;20890046;28;20101;-74
2021/03/26 15:17:47;;;;;;;1.15;0.90;;;10.80;69.30;;;;;;20883140;28;20029;-73
2021/03/26 15:28:01;;;;;;;2.03;0.77;;;10.80;69.30;;;;;;20872065;28;20033;-75
2021/03/26 15:38:12;;;;;;;2.05;0.77;;;11.00;69.50;;;;;;20884982;28;20079;-75
2021/03/26 15:48:22;;;;;;;2.95;0.60;;;11.10;69.20;;;;;;20896659;28;20044;-82
2021/03/26 15:58:35;;;;;;;0.88;0.47;;;11.00;69.10;;;;;;20902294;28;20032;-79
2021/03/26 16:09:00;;;;;;;1.75;1.20;;;11.00;69.20;;;;;;20899150;28;20068;-79
2021/03/26 16:19:22;;;;;;;1.55;0.75;;;11.10;69.10;;;;;;20907785;28;20036;-77
2021/03/26 16:29:44;;;;;;;0.75;0.60;;;11.10;69.00;;;;;;20892115;28;20033;-79
2021/03/26 16:40:04;;;;;;;1.15;0.65;;;11.10;68.90;;;;;;20914434;28;20061;-79
2021/03/26 16:50:28;;;;;;;0.52;0.30;;;11.20;69.00;;;;;;20915745;28;20494;-75
2021/03/26 17:00:43;;;;;;;0.40;0.30;;;11.10;68.50;;;;;;20912272;28;20041;-77
2021/03/26 17:11:11;;;;;;;0.93;0.85;;;11.10;68.60;;;;;;20915140;28;20506;-77
2021/03/26 17:21:46;;;;;;;0.75;0.43;;;11.10;68.40;;;;;;20911290;28;20033;-75
2021/03/26 17:32:08;;;;;;;1.77;0.90;;;11.10;68.50;;;;;;20907790;28;20043;-77
2021/03/26 17:42:42;;;;;;;0.47;0.43;;;11.20;68.40;;;;;;20888559;28;20471;-76
2021/03/26 17:53:12;;;;;;;1.00;0.90;;;11.10;68.40;;;;;;20910814;28;20032;-81
2021/03/26 18:03:40;;;;;;;0.90;0.63;;;11.00;68.50;;;;;;20884927;28;20115;-76
2021/03/26 18:14:13;;;;;;;0.30;0.28;;;10.90;69.20;;;;;;20874879;28;20516;-76
2021/03/26 18:24:38;;;;;;;0.80;0.47;;;10.90;68.60;;;;;;20827732;28;20053;-73
2021/03/26 18:34:51;;;;;;;1.15;0.45;;;10.90;68.70;;;;;;20905655;28;20071;-71
2021/03/26 18:45:01;;;;;;;0.77;0.47;;;10.90;68.80;;;;;;20871672;28;20029;-72
2021/03/26 18:55:14;;;;;;;4.43;0.85;;;10.80;68.80;;;;;;20843473;28;20041;-73
2021/03/26 19:05:40;;;;;;;0.20;0.20;;;10.80;68.80;;;;;;20903605;28;20403;-72
2021/03/26 19:15:41;;;;;;;1.50;0.80;;;10.80;68.90;;;;;;20917476;28;20060;-72
2021/03/26 19:25:58;;;;;;;0.65;0.43;;;10.80;68.90;;;;;;20901508;28;20052;-75
2021/03/26 19:36:23;;;;;;;0.68;0.50;;;10.80;68.90;;;;;;20899558;28;20487;-72
2021/03/26 19:46:30;;;;;;;0.85;0.50;;;10.80;68.90;;;;;;20847651;28;20032;-74
2021/03/26 19:56:37;;;;;;;1.37;0.60;;;10.80;69.00;;;;;;20915299;28;20068;-73
2021/03/26 20:07:15;;;;;;;0.63;0.30;;;10.70;68.90;;;;;;20918444;28;20051;-72
2021/03/26 20:17:24;;;;;;;0.80;0.50;;;10.80;68.90;;;;;;20918179;28;20040;-79
2021/03/26 20:27:33;;;;;;;1.10;0.80;;;10.70;68.90;;;;;;20916230;28;20037;-74
2021/03/26 20:37:44;;;;;;;1.90;0.57;;;10.70;69.50;;;;;;20898660;28;20041;-73
2021/03/26 20:47:52;;;;;;;1.25;0.52;;;10.70;68.80;;;;;;20914592;28;20386;-73
2021/03/26 20:58:30;;;;;;;0.52;0.30;;;10.70;68.80;;;;;;20897296;28;20037;-71
2021/03/26 21:08:48;;;;;;;0.32;0.32;;;10.70;68.90;;;;;;20894956;28;20037;-74
2021/03/26 21:18:56;;;;;;;0.10;0.10;;;10.70;68.80;;;;;;20870372;28;20043;-73
2021/03/26 21:29:20;;;;;;;1.65;0.73;;;10.70;68.90;;;;;;20849393;28;20036;-76
2021/03/26 21:39:35;;;;;;;2.33;0.77;;;10.70;68.80;;;;;;20889321;28;20025;-72
2021/03/26 21:50:00;;;;;;;0.77;0.40;;;10.70;68.80;;;;;;20859268;28;20104;-73
2021/03/26 22:00:03;;;;;;;1.42;0.80;;;10.70;68.80;;;;;;20803823;28;20045;-71
2021/03/26 22:10:05;;;;;;;1.00;0.50;;;10.70;68.70;;;;;;20825799;28;20053;-73
2021/03/26 22:20:35;;;;;;;1.20;0.47;;;10.60;68.70;;;;;;20842351;28;20482;-70
2021/03/26 22:30:56;;;;;;;0.50;0.50;;;10.70;68.70;;;;;;20884672;28;20037;-71
2021/03/26 22:41:14;;;;;;;0.45;0.30;;;10.60;68.70;;;;;;20838903;28;20037;-72
2021/03/26 22:51:30;;;;;;;0.90;0.68;;;10.70;68.70;;;;;;20792485;28;20091;-71
2021/03/26 23:01:30;;;;;;;0.88;0.60;;;10.70;68.70;;;;;;20807435;28;20152;-71
2021/03/26 23:11:33;;;;;;;1.05;0.60;;;10.60;68.60;;;;;;20823241;28;20095;-71
2021/03/26 23:21:43;;;;;;;0.20;0.20;;;10.70;68.60;;;;;;20790539;28;20041;-72
2021/03/26 23:31:46;;;;;;;1.85;0.57;;;10.70;68.60;;;;;;20806642;28;20042;-75
2021/03/26 23:41:56;;;;;;;0.55;0.55;;;10.60;68.60;;;;;;20821339;28;20065;-76
2021/03/26 23:52:02;;;;;;;2.95;0.80;;;10.70;69.30;;;;;;20788999;28;20084;-73
